sensor_id;sensor_type;location;lat;lon;timestamp;P1;durP1;ratioP1;P2;durP2;ratioP2
41966;SDS011;27656;53.068;8.818;2022-08-03T00:00:18;60.63;;;30.60;;
41966;SDS011;27656;53.068;8.818;2022-08-03T00:02:45;31.70;;;17.00;;
41966;SDS011;27656;53.068;8.818;2022-08-03T00:05:12;14.03;;;6.50;;
41966;SDS011;27656;53.068;8.818;2022-08-03T00:07:38;7.03;;;4.87;;
41966;SDS011;27656;53.068;8.818;2022-08-03T00:10:06;6.33;;;4.20;;
41966;SDS011;27656;53.068;8.818;2022-08-03T00:12:33;6.90;;;3.43;;
41966;SDS011;27656;53.068;8.818;2022-08-03T00:15:01;6.40;;;4.30;;
41966;SDS011;27656;53.068;8.818;2022-08-03T00:17:28;8.27;;;3.87;;
41966;SDS011;27656;53.068;8.818;2022-08-03T00:20:14;17.50;;;4.30;;
41966;SDS011;27656;53.068;8.818;2022-08-03T00:22:41;6.80;;;3.70;;
41966;SDS011;27656;53.068;8.818;2022-08-03T00:25:07;10.13;;;4.30;;
41966;SDS011;27656;53.068;8.818;2022-08-03T00:27:33;6.30;;;3.50;;
41966;SDS011;27656;53.068;8.818;2022-08-03T00:30:00;4.70;;;3.97;;
41966;SDS011;27656;53.068;8.818;2022-08-03T00:32:27;4.93;;;3.80;;
41966;SDS011;27656;53.068;8.818;2022-08-03T00:34:53;7.90;;;3.93;;
41966;SDS011;27656;53.068;8.818;2022-08-03T00:37:24;9.37;;;4.20;;
41966;SDS011;27656;53.068;8.818;2022-08-03T00:40:07;4.63;;;3.80;;
41966;SDS011;27656;53.068;8.818;2022-08-03T00:42:47;4.50;;;4.00;;
41966;SDS011;27656;53.068;8.818;2022-08-03T00:45:13;7.10;;;4.10;;
41966;SDS011;27656;53.068;8.818;2022-08-03T00:47:40;4.97;;;3.83;;
41966;SDS011;27656;53.068;8.818;2022-08-03T00:50:06;5.07;;;4.00;;
41966;SDS011;27656;53.068;8.818;2022-08-03T00:52:34;4.97;;;3.93;;
41966;SDS011;27656;53.068;8.818;2022-08-03T00:55:01;8.00;;;4.17;;
41966;SDS011;27656;53.068;8.818;2022-08-03T00:57:29;6.27;;;4.00;;
41966;SDS011;27656;53.068;8.818;2022-08-03T00:59:58;5.57;;;4.27;;
41966;SDS011;27656;53.068;8.818;2022-08-03T01:02:27;8.30;;;4.40;;
41966;SDS011;27656;53.068;8.818;2022-08-03T01:04:54;8.93;;;3.93;;
41966;SDS011;27656;53.068;8.818;2022-08-03T01:07:26;7.77;;;4.27;;
41966;SDS011;27656;53.068;8.818;2022-08-03T01:10:02;5.40;;;3.73;;
41966;SDS011;27656;53.068;8.818;2022-08-03T01:12:38;9.23;;;3.83;;
41966;SDS011;27656;53.068;8.818;2022-08-03T01:15:12;7.47;;;4.37;;
41966;SDS011;27656;53.068;8.818;2022-08-03T01:20:21;6.37;;;4.37;;
41966;SDS011;27656;53.068;8.818;2022-08-03T01:28:53;8.03;;;4.20;;
41966;SDS011;27656;53.068;8.818;2022-08-03T01:34:47;5.10;;;4.20;;
41966;SDS011;27656;53.068;8.818;2022-08-03T01:37:18;4.47;;;3.77;;
41966;SDS011;27656;53.068;8.818;2022-08-03T01:39:48;5.87;;;3.80;;
41966;SDS011;27656;53.068;8.818;2022-08-03T01:42:14;5.17;;;3.67;;
41966;SDS011;27656;53.068;8.818;2022-08-03T01:44:42;7.20;;;4.03;;
41966;SDS011;27656;53.068;8.818;2022-08-03T01:47:10;5.23;;;4.00;;
41966;SDS011;27656;53.068;8.818;2022-08-03T01:49:38;4.07;;;3.67;;
41966;SDS011;27656;53.068;8.818;2022-08-03T01:52:06;5.70;;;3.80;;
41966;SDS011;27656;53.068;8.818;2022-08-03T01:54:33;5.63;;;4.03;;
41966;SDS011;27656;53.068;8.818;2022-08-03T01:57:02;4.30;;;3.90;;
41966;SDS011;27656;53.068;8.818;2022-08-03T01:59:29;6.20;;;3.93;;
41966;SDS011;27656;53.068;8.818;2022-08-03T02:01:58;6.03;;;4.07;;
41966;SDS011;27656;53.068;8.818;2022-08-03T02:04:45;5.03;;;3.97;;
41966;SDS011;27656;53.068;8.818;2022-08-03T02:07:18;5.10;;;3.60;;
41966;SDS011;27656;53.068;8.818;2022-08-03T02:09:46;4.90;;;3.73;;
41966;SDS011;27656;53.068;8.818;2022-08-03T02:12:15;8.20;;;4.10;;
41966;SDS011;27656;53.068;8.818;2022-08-03T02:14:44;6.67;;;3.93;;
41966;SDS011;27656;53.068;8.818;2022-08-03T02:17:11;6.30;;;4.20;;
41966;SDS011;27656;53.068;8.818;2022-08-03T02:19:39;7.00;;;4.30;;
41966;SDS011;27656;53.068;8.818;2022-08-03T02:22:07;8.40;;;4.23;;
41966;SDS011;27656;53.068;8.818;2022-08-03T02:24:36;6.00;;;4.03;;
41966;SDS011;27656;53.068;8.818;2022-08-03T02:27:04;6.27;;;4.20;;
41966;SDS011;27656;53.068;8.818;2022-08-03T02:29:33;7.90;;;4.23;;
41966;SDS011;27656;53.068;8.818;2022-08-03T02:32:06;6.33;;;4.10;;
41966;SDS011;27656;53.068;8.818;2022-08-03T02:34:35;6.87;;;3.83;;
41966;SDS011;27656;53.068;8.818;2022-08-03T02:37:03;7.27;;;3.90;;
41966;SDS011;27656;53.068;8.818;2022-08-03T02:39:30;6.40;;;4.83;;
41966;SDS011;27656;53.068;8.818;2022-08-03T02:41:57;7.37;;;4.57;;
41966;SDS011;27656;53.068;8.818;2022-08-03T02:44:29;5.60;;;4.40;;
41966;SDS011;27656;53.068;8.818;2022-08-03T02:47:01;5.63;;;4.40;;
41966;SDS011;27656;53.068;8.818;2022-08-03T02:49:29;6.93;;;4.63;;
41966;SDS011;27656;53.068;8.818;2022-08-03T02:52:16;6.60;;;4.10;;
41966;SDS011;27656;53.068;8.818;2022-08-03T02:54:44;10.13;;;4.23;;
41966;SDS011;27656;53.068;8.818;2022-08-03T02:57:11;7.53;;;4.33;;
41966;SDS011;27656;53.068;8.818;2022-08-03T02:59:39;5.13;;;4.40;;
41966;SDS011;27656;53.068;8.818;2022-08-03T03:02:06;6.10;;;4.13;;
41966;SDS011;27656;53.068;8.818;2022-08-03T03:04:34;8.30;;;4.23;;
41966;SDS011;27656;53.068;8.818;2022-08-03T03:07:01;6.97;;;4.80;;
41966;SDS011;27656;53.068;8.818;2022-08-03T03:09:30;4.87;;;4.43;;
41966;SDS011;27656;53.068;8.818;2022-08-03T03:12:08;5.40;;;4.47;;
41966;SDS011;27656;53.068;8.818;2022-08-03T03:14:36;5.97;;;4.43;;
41966;SDS011;27656;53.068;8.818;2022-08-03T03:17:03;5.67;;;4.50;;
41966;SDS011;27656;53.068;8.818;2022-08-03T03:19:32;6.50;;;4.10;;
41966;SDS011;27656;53.068;8.818;2022-08-03T03:22:08;6.90;;;4.17;;
41966;SDS011;27656;53.068;8.818;2022-08-03T03:24:35;7.10;;;4.90;;
41966;SDS011;27656;53.068;8.818;2022-08-03T03:27:03;4.60;;;3.93;;
41966;SDS011;27656;53.068;8.818;2022-08-03T03:29:31;5.57;;;4.67;;
41966;SDS011;27656;53.068;8.818;2022-08-03T03:32:04;6.80;;;4.80;;
41966;SDS011;27656;53.068;8.818;2022-08-03T03:34:34;5.70;;;4.80;;
41966;SDS011;27656;53.068;8.818;2022-08-03T03:37:01;9.50;;;5.43;;
41966;SDS011;27656;53.068;8.818;2022-08-03T03:39:28;5.50;;;4.70;;
41966;SDS011;27656;53.068;8.818;2022-08-03T03:41:54;8.97;;;5.17;;
41966;SDS011;27656;53.068;8.818;2022-08-03T03:44:25;8.07;;;4.30;;
41966;SDS011;27656;53.068;8.818;2022-08-03T03:46:53;6.20;;;4.90;;
41966;SDS011;27656;53.068;8.818;2022-08-03T03:49:20;7.20;;;5.40;;
41966;SDS011;27656;53.068;8.818;2022-08-03T03:51:47;7.07;;;5.00;;
41966;SDS011;27656;53.068;8.818;2022-08-03T03:54:14;6.60;;;4.93;;
41966;SDS011;27656;53.068;8.818;2022-08-03T03:56:41;6.13;;;5.13;;
41966;SDS011;27656;53.068;8.818;2022-08-03T03:59:07;6.93;;;4.97;;
41966;SDS011;27656;53.068;8.818;2022-08-03T04:01:34;6.17;;;5.57;;
41966;SDS011;27656;53.068;8.818;2022-08-03T04:04:00;10.13;;;4.93;;
41966;SDS011;27656;53.068;8.818;2022-08-03T04:06:47;8.57;;;4.77;;
41966;SDS011;27656;53.068;8.818;2022-08-03T04:09:32;8.30;;;4.47;;
41966;SDS011;27656;53.068;8.818;2022-08-03T04:12:19;7.50;;;5.10;;
41966;SDS011;27656;53.068;8.818;2022-08-03T04:14:48;11.80;;;5.50;;
41966;SDS011;27656;53.068;8.818;2022-08-03T04:17:16;9.23;;;5.10;;
41966;SDS011;27656;53.068;8.818;2022-08-03T04:19:48;6.17;;;4.70;;
41966;SDS011;27656;53.068;8.818;2022-08-03T04:22:17;6.73;;;4.90;;
41966;SDS011;27656;53.068;8.818;2022-08-03T04:24:46;5.90;;;5.30;;
41966;SDS011;27656;53.068;8.818;2022-08-03T04:27:15;9.73;;;5.07;;
41966;SDS011;27656;53.068;8.818;2022-08-03T04:29:45;5.10;;;4.57;;
41966;SDS011;27656;53.068;8.818;2022-08-03T04:32:14;7.57;;;5.00;;
41966;SDS011;27656;53.068;8.818;2022-08-03T04:34:41;11.97;;;5.60;;
41966;SDS011;27656;53.068;8.818;2022-08-03T04:37:09;8.93;;;5.03;;
41966;SDS011;27656;53.068;8.818;2022-08-03T04:39:37;7.23;;;5.70;;
41966;SDS011;27656;53.068;8.818;2022-08-03T04:42:05;8.27;;;5.30;;
41966;SDS011;27656;53.068;8.818;2022-08-03T04:44:35;8.33;;;5.70;;
41966;SDS011;27656;53.068;8.818;2022-08-03T04:47:03;6.43;;;5.37;;
41966;SDS011;27656;53.068;8.818;2022-08-03T04:49:30;9.37;;;5.30;;
41966;SDS011;27656;53.068;8.818;2022-08-03T04:51:57;6.53;;;5.63;;
41966;SDS011;27656;53.068;8.818;2022-08-03T04:54:23;7.00;;;5.30;;
41966;SDS011;27656;53.068;8.818;2022-08-03T04:56:50;12.67;;;6.00;;
41966;SDS011;27656;53.068;8.818;2022-08-03T04:59:16;8.13;;;5.97;;
41966;SDS011;27656;53.068;8.818;2022-08-03T05:01:43;10.47;;;5.53;;
41966;SDS011;27656;53.068;8.818;2022-08-03T05:04:09;9.87;;;6.70;;
41966;SDS011;27656;53.068;8.818;2022-08-03T05:06:36;8.30;;;5.97;;
41966;SDS011;27656;53.068;8.818;2022-08-03T05:09:13;11.03;;;6.10;;
41966;SDS011;27656;53.068;8.818;2022-08-03T05:11:39;8.43;;;5.90;;
41966;SDS011;27656;53.068;8.818;2022-08-03T05:14:06;7.07;;;5.73;;
41966;SDS011;27656;53.068;8.818;2022-08-03T05:16:32;7.47;;;5.20;;
41966;SDS011;27656;53.068;8.818;2022-08-03T05:18:59;7.93;;;6.10;;
41966;SDS011;27656;53.068;8.818;2022-08-03T05:21:25;7.47;;;6.20;;
41966;SDS011;27656;53.068;8.818;2022-08-03T05:24:12;9.63;;;6.03;;
41966;SDS011;27656;53.068;8.818;2022-08-03T05:26:38;6.90;;;5.73;;
41966;SDS011;27656;53.068;8.818;2022-08-03T05:29:07;9.63;;;6.17;;
41966;SDS011;27656;53.068;8.818;2022-08-03T05:31:33;11.13;;;5.83;;
41966;SDS011;27656;53.068;8.818;2022-08-03T05:34:00;10.77;;;5.40;;
41966;SDS011;27656;53.068;8.818;2022-08-03T05:36:27;10.23;;;5.23;;
41966;SDS011;27656;53.068;8.818;2022-08-03T05:38:53;9.13;;;5.40;;
41966;SDS011;27656;53.068;8.818;2022-08-03T05:41:24;7.17;;;5.40;;
41966;SDS011;27656;53.068;8.818;2022-08-03T05:44:02;14.53;;;6.23;;
41966;SDS011;27656;53.068;8.818;2022-08-03T05:46:29;11.40;;;6.03;;
41966;SDS011;27656;53.068;8.818;2022-08-03T05:48:56;14.73;;;6.67;;
41966;SDS011;27656;53.068;8.818;2022-08-03T05:51:22;10.67;;;6.10;;
41966;SDS011;27656;53.068;8.818;2022-08-03T05:53:49;14.67;;;5.50;;
41966;SDS011;27656;53.068;8.818;2022-08-03T05:56:15;7.07;;;5.23;;
41966;SDS011;27656;53.068;8.818;2022-08-03T05:58:43;13.93;;;5.77;;
41966;SDS011;27656;53.068;8.818;2022-08-03T06:01:10;12.40;;;6.03;;
41966;SDS011;27656;53.068;8.818;2022-08-03T06:03:37;11.43;;;5.50;;
41966;SDS011;27656;53.068;8.818;2022-08-03T06:06:03;10.37;;;5.77;;
41966;SDS011;27656;53.068;8.818;2022-08-03T06:08:30;8.00;;;5.07;;
41966;SDS011;27656;53.068;8.818;2022-08-03T06:10:56;8.17;;;5.17;;
41966;SDS011;27656;53.068;8.818;2022-08-03T06:13:23;6.90;;;4.70;;
41966;SDS011;27656;53.068;8.818;2022-08-03T06:15:49;6.87;;;4.80;;
41966;SDS011;27656;53.068;8.818;2022-08-03T06:18:15;7.30;;;4.87;;
41966;SDS011;27656;53.068;8.818;2022-08-03T06:20:42;7.43;;;4.60;;
41966;SDS011;27656;53.068;8.818;2022-08-03T06:23:09;7.90;;;5.70;;
41966;SDS011;27656;53.068;8.818;2022-08-03T06:25:41;11.47;;;4.40;;
41966;SDS011;27656;53.068;8.818;2022-08-03T06:28:08;11.40;;;4.77;;
41966;SDS011;27656;53.068;8.818;2022-08-03T06:30:44;11.33;;;5.03;;
41966;SDS011;27656;53.068;8.818;2022-08-03T06:33:14;7.33;;;3.90;;
41966;SDS011;27656;53.068;8.818;2022-08-03T06:35:41;10.37;;;4.43;;
41966;SDS011;27656;53.068;8.818;2022-08-03T06:38:10;8.80;;;4.13;;
41966;SDS011;27656;53.068;8.818;2022-08-03T06:40:38;7.07;;;4.30;;
41966;SDS011;27656;53.068;8.818;2022-08-03T06:43:07;5.13;;;3.67;;
41966;SDS011;27656;53.068;8.818;2022-08-03T06:45:38;6.57;;;4.00;;
41966;SDS011;27656;53.068;8.818;2022-08-03T06:48:09;7.60;;;3.70;;
41966;SDS011;27656;53.068;8.818;2022-08-03T06:50:37;7.30;;;3.95;;
41966;SDS011;27656;53.068;8.818;2022-08-03T06:53:04;8.77;;;4.32;;
41966;SDS011;27656;53.068;8.818;2022-08-03T06:55:31;9.13;;;3.92;;
41966;SDS011;27656;53.068;8.818;2022-08-03T06:57:58;7.55;;;3.90;;
41966;SDS011;27656;53.068;8.818;2022-08-03T07:00:28;10.98;;;4.60;;
41966;SDS011;27656;53.068;8.818;2022-08-03T07:02:56;5.90;;;3.50;;
41966;SDS011;27656;53.068;8.818;2022-08-03T07:05:23;5.65;;;3.03;;
41966;SDS011;27656;53.068;8.818;2022-08-03T07:07:53;10.05;;;3.60;;
41966;SDS011;27656;53.068;8.818;2022-08-03T07:10:20;9.57;;;3.08;;
41966;SDS011;27656;53.068;8.818;2022-08-03T07:12:47;9.27;;;3.45;;
41966;SDS011;27656;53.068;8.818;2022-08-03T07:15:21;7.18;;;3.17;;
41966;SDS011;27656;53.068;8.818;2022-08-03T07:18:08;7.72;;;3.13;;
41966;SDS011;27656;53.068;8.818;2022-08-03T07:20:34;8.50;;;3.20;;
41966;SDS011;27656;53.068;8.818;2022-08-03T07:23:01;5.40;;;3.35;;
41966;SDS011;27656;53.068;8.818;2022-08-03T07:25:28;6.22;;;2.40;;
41966;SDS011;27656;53.068;8.818;2022-08-03T07:27:54;5.20;;;2.47;;
41966;SDS011;27656;53.068;8.818;2022-08-03T07:30:21;5.47;;;2.55;;
41966;SDS011;27656;53.068;8.818;2022-08-03T07:32:48;11.18;;;2.60;;
41966;SDS011;27656;53.068;8.818;2022-08-03T07:35:15;9.38;;;2.55;;
41966;SDS011;27656;53.068;8.818;2022-08-03T07:37:50;6.40;;;2.70;;
41966;SDS011;27656;53.068;8.818;2022-08-03T07:40:20;8.05;;;3.35;;
41966;SDS011;27656;53.068;8.818;2022-08-03T07:42:47;6.38;;;2.42;;
41966;SDS011;27656;53.068;8.818;2022-08-03T07:45:18;6.65;;;2.75;;
41966;SDS011;27656;53.068;8.818;2022-08-03T07:47:46;10.90;;;2.88;;
41966;SDS011;27656;53.068;8.818;2022-08-03T07:50:19;9.43;;;3.03;;
41966;SDS011;27656;53.068;8.818;2022-08-03T07:52:46;9.18;;;2.97;;
41966;SDS011;27656;53.068;8.818;2022-08-03T07:55:20;10.50;;;3.05;;
41966;SDS011;27656;53.068;8.818;2022-08-03T07:58:04;10.68;;;2.55;;
41966;SDS011;27656;53.068;8.818;2022-08-03T08:00:32;9.02;;;2.72;;
41966;SDS011;27656;53.068;8.818;2022-08-03T08:02:59;10.55;;;2.60;;
41966;SDS011;27656;53.068;8.818;2022-08-03T08:05:26;6.18;;;2.58;;
41966;SDS011;27656;53.068;8.818;2022-08-03T08:07:53;7.78;;;2.45;;
41966;SDS011;27656;53.068;8.818;2022-08-03T08:10:19;5.75;;;2.30;;
41966;SDS011;27656;53.068;8.818;2022-08-03T08:12:46;6.88;;;2.53;;
41966;SDS011;27656;53.068;8.818;2022-08-03T08:15:13;7.20;;;2.47;;
41966;SDS011;27656;53.068;8.818;2022-08-03T08:18:01;6.93;;;2.47;;
41966;SDS011;27656;53.068;8.818;2022-08-03T08:20:28;9.90;;;2.58;;
41966;SDS011;27656;53.068;8.818;2022-08-03T08:23:02;8.27;;;2.40;;
41966;SDS011;27656;53.068;8.818;2022-08-03T08:25:50;6.60;;;2.10;;
41966;SDS011;27656;53.068;8.818;2022-08-03T08:28:18;6.63;;;2.42;;
41966;SDS011;27656;53.068;8.818;2022-08-03T08:30:58;6.97;;;2.25;;
41966;SDS011;27656;53.068;8.818;2022-08-03T08:33:24;5.95;;;2.17;;
41966;SDS011;27656;53.068;8.818;2022-08-03T08:36:11;8.40;;;2.53;;
41966;SDS011;27656;53.068;8.818;2022-08-03T08:38:40;8.13;;;2.47;;
41966;SDS011;27656;53.068;8.818;2022-08-03T08:41:10;7.38;;;2.13;;
41966;SDS011;27656;53.068;8.818;2022-08-03T08:43:37;8.35;;;2.38;;
41966;SDS011;27656;53.068;8.818;2022-08-03T08:46:04;5.25;;;1.90;;
41966;SDS011;27656;53.068;8.818;2022-08-03T08:48:33;7.35;;;2.20;;
41966;SDS011;27656;53.068;8.818;2022-08-03T08:51:01;11.63;;;2.10;;
41966;SDS011;27656;53.068;8.818;2022-08-03T08:53:28;4.10;;;2.17;;
41966;SDS011;27656;53.068;8.818;2022-08-03T08:55:58;8.05;;;2.20;;
41966;SDS011;27656;53.068;8.818;2022-08-03T08:58:37;10.10;;;2.10;;
41966;SDS011;27656;53.068;8.818;2022-08-03T09:01:04;7.57;;;2.03;;
41966;SDS011;27656;53.068;8.818;2022-08-03T09:03:32;10.82;;;2.47;;
41966;SDS011;27656;53.068;8.818;2022-08-03T09:05:59;6.72;;;2.05;;
41966;SDS011;27656;53.068;8.818;2022-08-03T09:08:27;8.25;;;2.25;;
41966;SDS011;27656;53.068;8.818;2022-08-03T09:10:54;7.20;;;2.03;;
41966;SDS011;27656;53.068;8.818;2022-08-03T09:13:21;3.75;;;2.13;;
41966;SDS011;27656;53.068;8.818;2022-08-03T09:15:47;7.32;;;1.85;;
41966;SDS011;27656;53.068;8.818;2022-08-03T09:18:27;5.63;;;2.10;;
41966;SDS011;27656;53.068;8.818;2022-08-03T09:23:59;7.13;;;2.00;;
41966;SDS011;27656;53.068;8.818;2022-08-03T09:26:32;6.45;;;2.20;;
41966;SDS011;27656;53.068;8.818;2022-08-03T09:29:01;7.60;;;2.22;;
41966;SDS011;27656;53.068;8.818;2022-08-03T09:31:39;7.15;;;2.47;;
41966;SDS011;27656;53.068;8.818;2022-08-03T09:34:09;6.30;;;2.20;;
41966;SDS011;27656;53.068;8.818;2022-08-03T09:36:38;9.50;;;2.60;;
41966;SDS011;27656;53.068;8.818;2022-08-03T09:39:07;10.45;;;1.92;;
41966;SDS011;27656;53.068;8.818;2022-08-03T09:41:39;7.25;;;1.90;;
41966;SDS011;27656;53.068;8.818;2022-08-03T09:44:06;9.48;;;1.98;;
41966;SDS011;27656;53.068;8.818;2022-08-03T09:46:51;13.07;;;2.40;;
41966;SDS011;27656;53.068;8.818;2022-08-03T09:49:23;8.48;;;2.00;;
41966;SDS011;27656;53.068;8.818;2022-08-03T09:51:51;5.72;;;2.17;;
41966;SDS011;27656;53.068;8.818;2022-08-03T09:54:38;6.47;;;2.30;;
41966;SDS011;27656;53.068;8.818;2022-08-03T09:57:04;6.50;;;1.88;;
41966;SDS011;27656;53.068;8.818;2022-08-03T09:59:31;5.63;;;2.00;;
41966;SDS011;27656;53.068;8.818;2022-08-03T10:01:59;5.20;;;2.25;;
41966;SDS011;27656;53.068;8.818;2022-08-03T10:04:25;9.65;;;2.17;;
41966;SDS011;27656;53.068;8.818;2022-08-03T10:09:32;8.65;;;2.00;;
41966;SDS011;27656;53.068;8.818;2022-08-03T10:12:08;6.30;;;1.67;;
41966;SDS011;27656;53.068;8.818;2022-08-03T10:14:36;7.75;;;2.08;;
41966;SDS011;27656;53.068;8.818;2022-08-03T10:17:04;5.32;;;1.90;;
41966;SDS011;27656;53.068;8.818;2022-08-03T10:19:31;8.50;;;2.00;;
41966;SDS011;27656;53.068;8.818;2022-08-03T10:22:01;9.38;;;2.22;;
41966;SDS011;27656;53.068;8.818;2022-08-03T10:24:30;6.47;;;1.70;;
41966;SDS011;27656;53.068;8.818;2022-08-03T10:27:05;3.42;;;1.80;;
41966;SDS011;27656;53.068;8.818;2022-08-03T10:29:41;10.88;;;2.22;;
41966;SDS011;27656;53.068;8.818;2022-08-03T10:32:09;8.18;;;2.00;;
41966;SDS011;27656;53.068;8.818;2022-08-03T10:34:41;4.32;;;1.83;;
41966;SDS011;27656;53.068;8.818;2022-08-03T10:37:10;8.10;;;2.35;;
41966;SDS011;27656;53.068;8.818;2022-08-03T10:39:37;6.75;;;1.80;;
41966;SDS011;27656;53.068;8.818;2022-08-03T10:42:24;7.07;;;1.48;;
41966;SDS011;27656;53.068;8.818;2022-08-03T10:44:55;4.78;;;1.80;;
41966;SDS011;27656;53.068;8.818;2022-08-03T10:47:47;4.18;;;1.58;;
41966;SDS011;27656;53.068;8.818;2022-08-03T10:50:15;6.50;;;1.80;;
41966;SDS011;27656;53.068;8.818;2022-08-03T10:52:55;13.45;;;2.17;;
41966;SDS011;27656;53.068;8.818;2022-08-03T10:55:29;9.68;;;1.80;;
41966;SDS011;27656;53.068;8.818;2022-08-03T11:01:19;7.63;;;2.05;;
41966;SDS011;27656;53.068;8.818;2022-08-03T11:04:26;4.68;;;2.42;;
41966;SDS011;27656;53.068;8.818;2022-08-03T11:09:50;7.25;;;2.30;;
41966;SDS011;27656;53.068;8.818;2022-08-03T11:14:56;7.45;;;2.05;;
41966;SDS011;27656;53.068;8.818;2022-08-03T11:17:24;6.20;;;1.95;;
41966;SDS011;27656;53.068;8.818;2022-08-03T11:19:51;10.75;;;2.13;;
41966;SDS011;27656;53.068;8.818;2022-08-03T11:22:23;7.13;;;1.92;;
41966;SDS011;27656;53.068;8.818;2022-08-03T11:27:20;10.27;;;2.25;;
41966;SDS011;27656;53.068;8.818;2022-08-03T11:30:02;6.22;;;2.03;;
41966;SDS011;27656;53.068;8.818;2022-08-03T11:37:33;8.63;;;1.92;;
41966;SDS011;27656;53.068;8.818;2022-08-03T11:40:00;9.90;;;2.10;;
41966;SDS011;27656;53.068;8.818;2022-08-03T11:47:26;8.77;;;2.50;;
41966;SDS011;27656;53.068;8.818;2022-08-03T11:49:54;6.18;;;1.83;;
41966;SDS011;27656;53.068;8.818;2022-08-03T11:52:24;9.52;;;2.13;;
41966;SDS011;27656;53.068;8.818;2022-08-03T11:54:53;5.32;;;1.70;;
41966;SDS011;27656;53.068;8.818;2022-08-03T11:57:29;5.85;;;1.77;;
41966;SDS011;27656;53.068;8.818;2022-08-03T12:00:19;14.75;;;2.30;;
41966;SDS011;27656;53.068;8.818;2022-08-03T12:02:53;6.43;;;2.20;;
41966;SDS011;27656;53.068;8.818;2022-08-03T12:05:36;5.55;;;1.70;;
41966;SDS011;27656;53.068;8.818;2022-08-03T12:08:04;6.55;;;2.10;;
41966;SDS011;27656;53.068;8.818;2022-08-03T12:10:32;12.35;;;1.90;;
41966;SDS011;27656;53.068;8.818;2022-08-03T12:13:00;10.10;;;2.00;;
41966;SDS011;27656;53.068;8.818;2022-08-03T12:15:27;11.60;;;2.58;;
41966;SDS011;27656;53.068;8.818;2022-08-03T12:17:55;8.73;;;2.17;;
41966;SDS011;27656;53.068;8.818;2022-08-03T12:20:24;5.32;;;1.65;;
41966;SDS011;27656;53.068;8.818;2022-08-03T12:23:01;11.23;;;2.00;;
41966;SDS011;27656;53.068;8.818;2022-08-03T12:25:29;8.52;;;2.10;;
41966;SDS011;27656;53.068;8.818;2022-08-03T12:28:12;10.68;;;2.20;;
41966;SDS011;27656;53.068;8.818;2022-08-03T12:31:03;9.43;;;2.80;;
41966;SDS011;27656;53.068;8.818;2022-08-03T12:33:54;11.95;;;2.42;;
41966;SDS011;27656;53.068;8.818;2022-08-03T12:36:25;5.97;;;2.17;;
41966;SDS011;27656;53.068;8.818;2022-08-03T12:38:57;8.02;;;2.20;;
41966;SDS011;27656;53.068;8.818;2022-08-03T12:44:02;9.73;;;2.30;;
41966;SDS011;27656;53.068;8.818;2022-08-03T12:46:30;7.32;;;1.90;;
41966;SDS011;27656;53.068;8.818;2022-08-03T12:49:14;8.05;;;1.77;;
41966;SDS011;27656;53.068;8.818;2022-08-03T12:54:09;4.88;;;2.20;;
41966;SDS011;27656;53.068;8.818;2022-08-03T12:56:58;8.88;;;2.00;;
41966;SDS011;27656;53.068;8.818;2022-08-03T12:59:33;9.85;;;1.83;;
41966;SDS011;27656;53.068;8.818;2022-08-03T13:02:23;6.32;;;1.30;;
41966;SDS011;27656;53.068;8.818;2022-08-03T13:04:52;5.57;;;1.83;;
41966;SDS011;27656;53.068;8.818;2022-08-03T13:07:19;5.72;;;1.75;;
41966;SDS011;27656;53.068;8.818;2022-08-03T13:12:14;9.05;;;1.90;;
41966;SDS011;27656;53.068;8.818;2022-08-03T13:14:47;5.38;;;1.48;;
41966;SDS011;27656;53.068;8.818;2022-08-03T13:17:15;8.05;;;1.80;;
41966;SDS011;27656;53.068;8.818;2022-08-03T13:19:42;5.78;;;1.75;;
41966;SDS011;27656;53.068;8.818;2022-08-03T13:22:18;7.38;;;2.00;;
41966;SDS011;27656;53.068;8.818;2022-08-03T13:24:46;10.60;;;2.35;;
41966;SDS011;27656;53.068;8.818;2022-08-03T13:27:14;5.00;;;1.83;;
41966;SDS011;27656;53.068;8.818;2022-08-03T13:30:01;9.80;;;1.73;;
41966;SDS011;27656;53.068;8.818;2022-08-03T13:32:29;4.28;;;1.80;;
41966;SDS011;27656;53.068;8.818;2022-08-03T13:34:55;5.80;;;1.92;;
41966;SDS011;27656;53.068;8.818;2022-08-03T13:37:22;9.02;;;1.73;;
41966;SDS011;27656;53.068;8.818;2022-08-03T13:39:49;4.60;;;1.85;;
41966;SDS011;27656;53.068;8.818;2022-08-03T13:42:25;13.63;;;2.13;;
41966;SDS011;27656;53.068;8.818;2022-08-03T13:44:51;9.15;;;2.05;;
41966;SDS011;27656;53.068;8.818;2022-08-03T13:47:18;10.80;;;1.98;;
41966;SDS011;27656;53.068;8.818;2022-08-03T13:49:45;7.85;;;1.80;;
41966;SDS011;27656;53.068;8.818;2022-08-03T13:52:25;5.55;;;2.08;;
41966;SDS011;27656;53.068;8.818;2022-08-03T13:54:52;9.05;;;2.17;;
41966;SDS011;27656;53.068;8.818;2022-08-03T13:57:19;9.40;;;2.10;;
41966;SDS011;27656;53.068;8.818;2022-08-03T14:00:06;6.35;;;1.85;;
41966;SDS011;27656;53.068;8.818;2022-08-03T14:02:33;10.18;;;2.20;;
41966;SDS011;27656;53.068;8.818;2022-08-03T14:04:59;10.98;;;2.03;;
41966;SDS011;27656;53.068;8.818;2022-08-03T14:07:26;6.28;;;1.70;;
41966;SDS011;27656;53.068;8.818;2022-08-03T14:09:52;9.18;;;1.90;;
41966;SDS011;27656;53.068;8.818;2022-08-03T14:12:18;8.90;;;2.10;;
41966;SDS011;27656;53.068;8.818;2022-08-03T14:14:45;7.00;;;1.83;;
41966;SDS011;27656;53.068;8.818;2022-08-03T14:17:11;7.20;;;2.00;;
41966;SDS011;27656;53.068;8.818;2022-08-03T14:19:41;8.90;;;2.20;;
41966;SDS011;27656;53.068;8.818;2022-08-03T14:22:19;13.38;;;2.70;;
41966;SDS011;27656;53.068;8.818;2022-08-03T14:24:45;7.95;;;2.05;;
41966;SDS011;27656;53.068;8.818;2022-08-03T14:27:12;9.93;;;1.98;;
41966;SDS011;27656;53.068;8.818;2022-08-03T14:29:38;8.20;;;1.77;;
41966;SDS011;27656;53.068;8.818;2022-08-03T14:32:05;7.35;;;2.03;;
41966;SDS011;27656;53.068;8.818;2022-08-03T14:34:37;12.50;;;2.42;;
41966;SDS011;27656;53.068;8.818;2022-08-03T14:37:04;7.72;;;1.83;;
41966;SDS011;27656;53.068;8.818;2022-08-03T14:39:31;7.35;;;1.90;;
41966;SDS011;27656;53.068;8.818;2022-08-03T14:42:17;9.98;;;1.92;;
41966;SDS011;27656;53.068;8.818;2022-08-03T14:44:45;9.90;;;2.75;;
41966;SDS011;27656;53.068;8.818;2022-08-03T14:47:12;8.80;;;2.47;;
41966;SDS011;27656;53.068;8.818;2022-08-03T14:49:38;14.77;;;2.50;;
41966;SDS011;27656;53.068;8.818;2022-08-03T14:52:25;10.80;;;2.58;;
41966;SDS011;27656;53.068;8.818;2022-08-03T14:54:51;11.25;;;2.03;;
41966;SDS011;27656;53.068;8.818;2022-08-03T14:57:18;10.27;;;2.40;;
41966;SDS011;27656;53.068;8.818;2022-08-03T14:59:45;10.23;;;2.05;;
41966;SDS011;27656;53.068;8.818;2022-08-03T15:02:22;8.32;;;2.45;;
41966;SDS011;27656;53.068;8.818;2022-08-03T15:04:49;14.65;;;2.50;;
41966;SDS011;27656;53.068;8.818;2022-08-03T15:07:16;11.30;;;2.20;;
41966;SDS011;27656;53.068;8.818;2022-08-03T15:09:42;13.23;;;3.13;;
41966;SDS011;27656;53.068;8.818;2022-08-03T15:12:09;9.98;;;2.08;;
41966;SDS011;27656;53.068;8.818;2022-08-03T15:14:35;8.77;;;2.03;;
41966;SDS011;27656;53.068;8.818;2022-08-03T15:17:03;12.98;;;2.47;;
41966;SDS011;27656;53.068;8.818;2022-08-03T15:19:30;11.45;;;2.55;;
41966;SDS011;27656;53.068;8.818;2022-08-03T15:22:16;9.70;;;2.38;;
41966;SDS011;27656;53.068;8.818;2022-08-03T15:24:50;12.20;;;2.10;;
41966;SDS011;27656;53.068;8.818;2022-08-03T15:27:17;11.40;;;2.72;;
41966;SDS011;27656;53.068;8.818;2022-08-03T15:29:44;11.80;;;2.55;;
41966;SDS011;27656;53.068;8.818;2022-08-03T15:32:31;9.43;;;1.95;;
41966;SDS011;27656;53.068;8.818;2022-08-03T15:34:58;10.98;;;2.38;;
41966;SDS011;27656;53.068;8.818;2022-08-03T15:37:25;7.45;;;1.98;;
41966;SDS011;27656;53.068;8.818;2022-08-03T15:39:53;11.98;;;2.17;;
41966;SDS011;27656;53.068;8.818;2022-08-03T15:42:30;11.20;;;2.42;;
41966;SDS011;27656;53.068;8.818;2022-08-03T15:44:58;9.60;;;2.15;;
41966;SDS011;27656;53.068;8.818;2022-08-03T15:47:24;7.18;;;1.55;;
41966;SDS011;27656;53.068;8.818;2022-08-03T15:49:51;9.75;;;2.05;;